sensor_id;sensor_type;location;lat;lon;timestamp;temperature;humidity
21149;DHT22;10732;51.472;6.466;2022-09-28T00:01:42;7.50;99.90
21149;DHT22;10732;51.472;6.466;2022-09-28T00:04:08;7.40;99.90
21149;DHT22;10732;51.472;6.466;2022-09-28T00:06:33;7.40;99.90
21149;DHT22;10732;51.472;6.466;2022-09-28T00:08:59;7.30;99.90
21149;DHT22;10732;51.472;6.466;2022-09-28T00:11:25;7.30;99.90
21149;DHT22;10732;51.472;6.466;2022-09-28T00:13:56;7.30;99.90
21149;DHT22;10732;51.472;6.466;2022-09-28T00:16:26;7.30;99.90
21149;DHT22;10732;51.472;6.466;2022-09-28T00:18:53;7.30;99.90
21149;DHT22;10732;51.472;6.466;2022-09-28T00:21:21;7.30;99.90
21149;DHT22;10732;51.472;6.466;2022-09-28T00:23:47;7.20;99.90
21149;DHT22;10732;51.472;6.466;2022-09-28T00:29:30;7.10;99.90
21149;DHT22;10732;51.472;6.466;2022-09-28T00:31:58;7.10;99.90
21149;DHT22;10732;51.472;6.466;2022-09-28T00:34:27;7.10;99.90
21149;DHT22;10732;51.472;6.466;2022-09-28T00:36:55;7.20;99.90
21149;DHT22;10732;51.472;6.466;2022-09-28T00:39:21;7.20;99.90
21149;DHT22;10732;51.472;6.466;2022-09-28T00:41:46;7.30;99.90
21149;DHT22;10732;51.472;6.466;2022-09-28T00:46:54;7.40;99.90
21149;DHT22;10732;51.472;6.466;2022-09-28T00:49:33;7.40;99.90
21149;DHT22;10732;51.472;6.466;2022-09-28T00:52:02;7.40;99.90
21149;DHT22;10732;51.472;6.466;2022-09-28T00:54:29;7.40;99.90
21149;DHT22;10732;51.472;6.466;2022-09-28T00:56:54;7.40;99.90
21149;DHT22;10732;51.472;6.466;2022-09-28T00:59:20;7.50;99.90
21149;DHT22;10732;51.472;6.466;2022-09-28T01:01:49;7.50;99.90
21149;DHT22;10732;51.472;6.466;2022-09-28T01:04:15;7.50;99.90
21149;DHT22;10732;51.472;6.466;2022-09-28T01:06:43;7.50;99.90
21149;DHT22;10732;51.472;6.466;2022-09-28T01:09:10;7.50;99.90
21149;DHT22;10732;51.472;6.466;2022-09-28T01:11:37;7.50;99.90
21149;DHT22;10732;51.472;6.466;2022-09-28T01:14:09;7.50;99.90
21149;DHT22;10732;51.472;6.466;2022-09-28T01:16:47;7.50;99.90
21149;DHT22;10732;51.472;6.466;2022-09-28T01:27:53;7.30;99.90
21149;DHT22;10732;51.472;6.466;2022-09-28T01:30:21;7.20;99.90
21149;DHT22;10732;51.472;6.466;2022-09-28T01:32:52;7.20;99.90
21149;DHT22;10732;51.472;6.466;2022-09-28T01:35:25;7.10;99.90
21149;DHT22;10732;51.472;6.466;2022-09-28T01:37:57;7.10;99.90
21149;DHT22;10732;51.472;6.466;2022-09-28T01:40:26;7.10;99.90
21149;DHT22;10732;51.472;6.466;2022-09-28T01:43:03;7.10;99.90
21149;DHT22;10732;51.472;6.466;2022-09-28T01:45:39;7.10;99.90
21149;DHT22;10732;51.472;6.466;2022-09-28T01:48:06;7.00;99.90
21149;DHT22;10732;51.472;6.466;2022-09-28T01:50:37;7.00;99.90
21149;DHT22;10732;51.472;6.466;2022-09-28T01:55:45;6.90;99.90
21149;DHT22;10732;51.472;6.466;2022-09-28T01:58:57;6.90;99.90
21149;DHT22;10732;51.472;6.466;2022-09-28T02:01:07;6.90;99.90
21149;DHT22;10732;51.472;6.466;2022-09-28T02:03:56;6.80;99.90
21149;DHT22;10732;51.472;6.466;2022-09-28T02:06:26;6.80;99.90
21149;DHT22;10732;51.472;6.466;2022-09-28T02:08:59;6.70;99.90
21149;DHT22;10732;51.472;6.466;2022-09-28T02:11:26;6.70;99.90
21149;DHT22;10732;51.472;6.466;2022-09-28T02:13:57;6.80;99.90
21149;DHT22;10732;51.472;6.466;2022-09-28T02:16:39;6.80;99.90
21149;DHT22;10732;51.472;6.466;2022-09-28T02:19:12;6.80;99.90
21149;DHT22;10732;51.472;6.466;2022-09-28T02:21:41;6.70;99.90
21149;DHT22;10732;51.472;6.466;2022-09-28T02:24:26;6.70;99.90
21149;DHT22;10732;51.472;6.466;2022-09-28T02:26:55;6.60;99.90
21149;DHT22;10732;51.472;6.466;2022-09-28T02:29:23;6.60;99.90
21149;DHT22;10732;51.472;6.466;2022-09-28T02:31:50;6.60;99.90
21149;DHT22;10732;51.472;6.466;2022-09-28T02:34:15;6.60;99.90
21149;DHT22;10732;51.472;6.466;2022-09-28T02:36:41;6.60;99.90
21149;DHT22;10732;51.472;6.466;2022-09-28T02:39:15;6.50;99.90
21149;DHT22;10732;51.472;6.466;2022-09-28T02:41:54;6.50;99.90
21149;DHT22;10732;51.472;6.466;2022-09-28T02:47:26;6.40;99.90
21149;DHT22;10732;51.472;6.466;2022-09-28T02:50:11;6.30;99.90
21149;DHT22;10732;51.472;6.466;2022-09-28T02:53:14;6.40;99.90
21149;DHT22;10732;51.472;6.466;2022-09-28T02:56:14;6.40;99.90
21149;DHT22;10732;51.472;6.466;2022-09-28T03:01:45;6.60;99.90
21149;DHT22;10732;51.472;6.466;2022-09-28T03:04:44;6.70;99.90
21149;DHT22;10732;51.472;6.466;2022-09-28T03:07:23;6.80;99.90
21149;DHT22;10732;51.472;6.466;2022-09-28T03:12:28;6.90;99.90
21149;DHT22;10732;51.472;6.466;2022-09-28T03:15:22;6.90;99.90
21149;DHT22;10732;51.472;6.466;2022-09-28T03:17:48;7.00;99.90
21149;DHT22;10732;51.472;6.466;2022-09-28T03:20:14;7.10;99.90
21149;DHT22;10732;51.472;6.466;2022-09-28T03:22:40;7.10;99.90
21149;DHT22;10732;51.472;6.466;2022-09-28T03:25:06;7.20;99.90
21149;DHT22;10732;51.472;6.466;2022-09-28T03:27:32;7.20;99.90
21149;DHT22;10732;51.472;6.466;2022-09-28T03:29:57;7.20;99.90
21149;DHT22;10732;51.472;6.466;2022-09-28T03:32:23;7.20;99.90
21149;DHT22;10732;51.472;6.466;2022-09-28T03:34:48;7.20;99.90
21149;DHT22;10732;51.472;6.466;2022-09-28T03:37:14;7.20;99.90
21149;DHT22;10732;51.472;6.466;2022-09-28T03:39:40;7.20;99.90
21149;DHT22;10732;51.472;6.466;2022-09-28T03:42:05;7.20;99.90
21149;DHT22;10732;51.472;6.466;2022-09-28T03:44:31;7.20;99.90
21149;DHT22;10732;51.472;6.466;2022-09-28T03:46:56;7.30;99.90
21149;DHT22;10732;51.472;6.466;2022-09-28T03:49:22;7.30;99.90
21149;DHT22;10732;51.472;6.466;2022-09-28T03:51:47;7.30;99.90
21149;DHT22;10732;51.472;6.466;2022-09-28T03:54:13;7.30;99.90
21149;DHT22;10732;51.472;6.466;2022-09-28T03:56:39;7.30;99.90
21149;DHT22;10732;51.472;6.466;2022-09-28T03:59:05;7.30;99.90
21149;DHT22;10732;51.472;6.466;2022-09-28T04:01:30;7.20;99.90
21149;DHT22;10732;51.472;6.466;2022-09-28T04:03:56;7.20;99.90
21149;DHT22;10732;51.472;6.466;2022-09-28T04:06:25;7.20;99.90
21149;DHT22;10732;51.472;6.466;2022-09-28T04:08:51;7.20;99.90
21149;DHT22;10732;51.472;6.466;2022-09-28T04:11:16;7.20;99.90
21149;DHT22;10732;51.472;6.466;2022-09-28T04:13:42;7.20;99.90
21149;DHT22;10732;51.472;6.466;2022-09-28T04:16:09;7.20;99.90
21149;DHT22;10732;51.472;6.466;2022-09-28T04:18:35;7.20;99.90
21149;DHT22;10732;51.472;6.466;2022-09-28T04:21:03;7.20;99.90
21149;DHT22;10732;51.472;6.466;2022-09-28T04:23:34;7.30;99.90
21149;DHT22;10732;51.472;6.466;2022-09-28T04:26:00;7.30;99.90
21149;DHT22;10732;51.472;6.466;2022-09-28T04:28:26;7.30;99.90
21149;DHT22;10732;51.472;6.466;2022-09-28T04:31:13;7.30;99.90
21149;DHT22;10732;51.472;6.466;2022-09-28T04:33:40;7.30;99.90
21149;DHT22;10732;51.472;6.466;2022-09-28T04:36:05;7.30;99.90
21149;DHT22;10732;51.472;6.466;2022-09-28T04:38:32;7.30;99.90
21149;DHT22;10732;51.472;6.466;2022-09-28T04:40:57;7.30;99.90
21149;DHT22;10732;51.472;6.466;2022-09-28T04:43:23;7.30;99.90
21149;DHT22;10732;51.472;6.466;2022-09-28T04:45:48;7.30;99.90
21149;DHT22;10732;51.472;6.466;2022-09-28T04:48:14;7.30;99.90
21149;DHT22;10732;51.472;6.466;2022-09-28T04:50:39;7.40;99.90
21149;DHT22;10732;51.472;6.466;2022-09-28T04:53:05;7.40;99.90
21149;DHT22;10732;51.472;6.466;2022-09-28T04:55:30;7.40;99.90
21149;DHT22;10732;51.472;6.466;2022-09-28T04:58:00;7.40;99.90
21149;DHT22;10732;51.472;6.466;2022-09-28T05:00:28;7.40;99.90
21149;DHT22;10732;51.472;6.466;2022-09-28T05:02:58;7.40;99.90
21149;DHT22;10732;51.472;6.466;2022-09-28T05:05:24;7.50;99.90
21149;DHT22;10732;51.472;6.466;2022-09-28T05:07:49;7.50;99.90
21149;DHT22;10732;51.472;6.466;2022-09-28T05:10:15;7.50;99.90
21149;DHT22;10732;51.472;6.466;2022-09-28T05:12:41;7.50;99.90
21149;DHT22;10732;51.472;6.466;2022-09-28T05:15:07;7.50;99.90
21149;DHT22;10732;51.472;6.466;2022-09-28T05:17:32;7.50;99.90
21149;DHT22;10732;51.472;6.466;2022-09-28T05:19:58;7.50;99.90
21149;DHT22;10732;51.472;6.466;2022-09-28T05:22:24;7.60;99.90
21149;DHT22;10732;51.472;6.466;2022-09-28T05:24:50;7.60;99.90
21149;DHT22;10732;51.472;6.466;2022-09-28T05:27:16;7.60;99.90
21149;DHT22;10732;51.472;6.466;2022-09-28T05:29:41;7.60;99.90
21149;DHT22;10732;51.472;6.466;2022-09-28T05:32:07;7.60;99.90
21149;DHT22;10732;51.472;6.466;2022-09-28T05:34:32;7.60;99.90
21149;DHT22;10732;51.472;6.466;2022-09-28T05:36:58;7.70;99.90
21149;DHT22;10732;51.472;6.466;2022-09-28T05:39:23;7.70;99.90
21149;DHT22;10732;51.472;6.466;2022-09-28T05:41:49;7.70;99.90
21149;DHT22;10732;51.472;6.466;2022-09-28T05:44:14;7.70;99.90
21149;DHT22;10732;51.472;6.466;2022-09-28T05:46:40;7.70;99.90
21149;DHT22;10732;51.472;6.466;2022-09-28T05:49:05;7.70;99.90
21149;DHT22;10732;51.472;6.466;2022-09-28T05:51:31;7.70;99.90
21149;DHT22;10732;51.472;6.466;2022-09-28T05:53:57;7.70;99.90
21149;DHT22;10732;51.472;6.466;2022-09-28T05:56:22;7.70;99.90
21149;DHT22;10732;51.472;6.466;2022-09-28T05:58:48;7.70;99.90
21149;DHT22;10732;51.472;6.466;2022-09-28T06:01:13;7.70;99.90
21149;DHT22;10732;51.472;6.466;2022-09-28T06:03:39;7.70;99.90
21149;DHT22;10732;51.472;6.466;2022-09-28T06:06:04;7.80;99.90
21149;DHT22;10732;51.472;6.466;2022-09-28T06:08:31;7.80;99.90
21149;DHT22;10732;51.472;6.466;2022-09-28T06:10:59;7.90;99.90
21149;DHT22;10732;51.472;6.466;2022-09-28T06:13:26;7.90;99.90
21149;DHT22;10732;51.472;6.466;2022-09-28T06:15:52;7.90;99.90
21149;DHT22;10732;51.472;6.466;2022-09-28T06:18:18;7.90;99.90
21149;DHT22;10732;51.472;6.466;2022-09-28T06:20:43;7.90;99.90
21149;DHT22;10732;51.472;6.466;2022-09-28T06:23:10;7.90;99.90
21149;DHT22;10732;51.472;6.466;2022-09-28T06:25:36;7.90;99.90
21149;DHT22;10732;51.472;6.466;2022-09-28T06:28:04;7.90;99.90
21149;DHT22;10732;51.472;6.466;2022-09-28T06:30:32;8.00;99.90
21149;DHT22;10732;51.472;6.466;2022-09-28T06:33:00;7.90;99.90
21149;DHT22;10732;51.472;6.466;2022-09-28T06:35:28;8.00;99.90
21149;DHT22;10732;51.472;6.466;2022-09-28T06:37:54;8.00;99.90
21149;DHT22;10732;51.472;6.466;2022-09-28T06:40:21;8.10;99.90
21149;DHT22;10732;51.472;6.466;2022-09-28T06:43:08;8.10;99.90
21149;DHT22;10732;51.472;6.466;2022-09-28T06:45:35;8.30;99.90
21149;DHT22;10732;51.472;6.466;2022-09-28T06:48:02;8.40;99.90
21149;DHT22;10732;51.472;6.466;2022-09-28T06:50:30;8.50;99.90
21149;DHT22;10732;51.472;6.466;2022-09-28T06:53:00;8.50;99.90
21149;DHT22;10732;51.472;6.466;2022-09-28T06:55:27;8.40;99.90
21149;DHT22;10732;51.472;6.466;2022-09-28T06:58:01;8.40;99.90
21149;DHT22;10732;51.472;6.466;2022-09-28T07:00:28;8.50;99.90
21149;DHT22;10732;51.472;6.466;2022-09-28T07:02:55;8.50;99.90
21149;DHT22;10732;51.472;6.466;2022-09-28T07:05:21;8.50;99.90
21149;DHT22;10732;51.472;6.466;2022-09-28T07:07:54;8.60;99.90
21149;DHT22;10732;51.472;6.466;2022-09-28T07:10:25;8.50;99.90
21149;DHT22;10732;51.472;6.466;2022-09-28T07:12:52;8.60;99.90
21149;DHT22;10732;51.472;6.466;2022-09-28T07:15:19;8.70;99.90
21149;DHT22;10732;51.472;6.466;2022-09-28T07:17:44;8.90;99.90
21149;DHT22;10732;51.472;6.466;2022-09-28T07:20:10;9.40;99.90
21149;DHT22;10732;51.472;6.466;2022-09-28T07:22:36;9.50;99.90
21149;DHT22;10732;51.472;6.466;2022-09-28T07:25:04;9.60;99.90
21149;DHT22;10732;51.472;6.466;2022-09-28T07:27:29;9.80;99.90
21149;DHT22;10732;51.472;6.466;2022-09-28T07:29:55;10.20;99.90
21149;DHT22;10732;51.472;6.466;2022-09-28T07:32:21;10.40;99.90
21149;DHT22;10732;51.472;6.466;2022-09-28T07:34:46;10.50;99.90
21149;DHT22;10732;51.472;6.466;2022-09-28T07:37:13;10.50;99.90
21149;DHT22;10732;51.472;6.466;2022-09-28T07:39:39;11.00;99.90
21149;DHT22;10732;51.472;6.466;2022-09-28T07:42:25;11.80;99.90
21149;DHT22;10732;51.472;6.466;2022-09-28T07:44:54;12.60;99.90
21149;DHT22;10732;51.472;6.466;2022-09-28T07:47:21;13.20;99.90
21149;DHT22;10732;51.472;6.466;2022-09-28T07:49:54;13.90;99.90
21149;DHT22;10732;51.472;6.466;2022-09-28T07:52:21;14.00;99.90
21149;DHT22;10732;51.472;6.466;2022-09-28T07:54:49;14.90;99.90
21149;DHT22;10732;51.472;6.466;2022-09-28T07:57:17;15.00;99.90
21149;DHT22;10732;51.472;6.466;2022-09-28T07:59:43;14.80;99.90
21149;DHT22;10732;51.472;6.466;2022-09-28T08:02:10;15.30;99.90
21149;DHT22;10732;51.472;6.466;2022-09-28T08:04:36;14.90;99.90
21149;DHT22;10732;51.472;6.466;2022-09-28T08:07:01;14.40;99.90
21149;DHT22;10732;51.472;6.466;2022-09-28T08:09:28;15.00;99.90
21149;DHT22;10732;51.472;6.466;2022-09-28T08:11:54;14.80;99.90
21149;DHT22;10732;51.472;6.466;2022-09-28T08:14:19;15.10;99.90
21149;DHT22;10732;51.472;6.466;2022-09-28T08:16:45;14.70;99.90
21149;DHT22;10732;51.472;6.466;2022-09-28T08:19:11;13.80;99.90
21149;DHT22;10732;51.472;6.466;2022-09-28T08:21:36;12.70;99.90
21149;DHT22;10732;51.472;6.466;2022-09-28T08:24:15;12.20;99.90
21149;DHT22;10732;51.472;6.466;2022-09-28T08:26:41;11.80;99.90
21149;DHT22;10732;51.472;6.466;2022-09-28T08:29:07;11.60;99.90
21149;DHT22;10732;51.472;6.466;2022-09-28T08:31:33;11.40;99.90
21149;DHT22;10732;51.472;6.466;2022-09-28T08:33:59;11.30;99.90
21149;DHT22;10732;51.472;6.466;2022-09-28T08:36:25;11.40;99.90
21149;DHT22;10732;51.472;6.466;2022-09-28T08:38:50;11.30;99.90
21149;DHT22;10732;51.472;6.466;2022-09-28T08:46:32;11.60;99.90
21149;DHT22;10732;51.472;6.466;2022-09-28T08:49:20;11.50;99.90
21149;DHT22;10732;51.472;6.466;2022-09-28T08:52:14;11.50;99.90
21149;DHT22;10732;51.472;6.466;2022-09-28T08:55:03;11.50;99.90
21149;DHT22;10732;51.472;6.466;2022-09-28T08:57:35;11.50;99.90
21149;DHT22;10732;51.472;6.466;2022-09-28T09:00:04;11.50;99.90
21149;DHT22;10732;51.472;6.466;2022-09-28T09:02:34;11.70;99.90
21149;DHT22;10732;51.472;6.466;2022-09-28T09:05:05;11.90;99.90
21149;DHT22;10732;51.472;6.466;2022-09-28T09:18:35;13.00;99.90
21149;DHT22;10732;51.472;6.466;2022-09-28T09:24:15;14.30;99.90
21149;DHT22;10732;51.472;6.466;2022-09-28T09:26:42;14.80;99.90
21149;DHT22;10732;51.472;6.466;2022-09-28T09:29:11;14.70;99.90
21149;DHT22;10732;51.472;6.466;2022-09-28T09:34:40;13.90;99.90
21149;DHT22;10732;51.472;6.466;2022-09-28T09:37:20;13.80;99.90
21149;DHT22;10732;51.472;6.466;2022-09-28T09:48:05;16.70;1.00
21149;DHT22;10732;51.472;6.466;2022-09-28T09:50:36;16.50;1.00
21149;DHT22;10732;51.472;6.466;2022-09-28T09:53:15;17.00;1.00
21149;DHT22;10732;51.472;6.466;2022-09-28T09:55:47;17.50;1.00
21149;DHT22;10732;51.472;6.466;2022-09-28T09:58:24;17.80;99.90
21149;DHT22;10732;51.472;6.466;2022-09-28T10:00:53;18.80;1.00
21149;DHT22;10732;51.472;6.466;2022-09-28T10:03:26;18.90;99.90
21149;DHT22;10732;51.472;6.466;2022-09-28T10:06:04;17.80;1.00
21149;DHT22;10732;51.472;6.466;2022-09-28T10:08:34;17.30;1.00
21149;DHT22;10732;51.472;6.466;2022-09-28T10:11:09;16.40;17.10
21149;DHT22;10732;51.472;6.466;2022-09-28T10:13:37;15.80;99.90
21149;DHT22;10732;51.472;6.466;2022-09-28T10:16:04;15.70;1.00
21149;DHT22;10732;51.472;6.466;2022-09-28T10:18:30;15.40;1.00
21149;DHT22;10732;51.472;6.466;2022-09-28T10:20:56;15.00;1.00
21149;DHT22;10732;51.472;6.466;2022-09-28T10:23:25;14.60;1.00
21149;DHT22;10732;51.472;6.466;2022-09-28T10:25:55;14.10;1.00
21149;DHT22;10732;51.472;6.466;2022-09-28T10:28:33;13.60;1.00
21149;DHT22;10732;51.472;6.466;2022-09-28T10:30:59;13.40;1.00
21149;DHT22;10732;51.472;6.466;2022-09-28T10:33:32;13.50;22.40
21149;DHT22;10732;51.472;6.466;2022-09-28T10:36:03;13.50;12.70
21149;DHT22;10732;51.472;6.466;2022-09-28T10:38:31;13.60;1.00
21149;DHT22;10732;51.472;6.466;2022-09-28T10:40:59;13.50;3.10
21149;DHT22;10732;51.472;6.466;2022-09-28T10:43:33;13.40;28.80
21149;DHT22;10732;51.472;6.466;2022-09-28T10:46:04;13.40;60.40
21149;DHT22;10732;51.472;6.466;2022-09-28T10:51:10;13.60;1.00
21149;DHT22;10732;51.472;6.466;2022-09-28T10:53:36;13.90;1.00
21149;DHT22;10732;51.472;6.466;2022-09-28T10:56:19;14.30;1.00
21149;DHT22;10732;51.472;6.466;2022-09-28T10:58:45;14.90;1.00
21149;DHT22;10732;51.472;6.466;2022-09-28T11:01:18;14.70;1.00
21149;DHT22;10732;51.472;6.466;2022-09-28T11:04:00;14.30;1.00
21149;DHT22;10732;51.472;6.466;2022-09-28T11:06:32;13.90;1.00
21149;DHT22;10732;51.472;6.466;2022-09-28T11:09:03;13.80;1.00
21149;DHT22;10732;51.472;6.466;2022-09-28T11:11:30;13.80;1.00
21149;DHT22;10732;51.472;6.466;2022-09-28T11:14:04;13.90;1.00
21149;DHT22;10732;51.472;6.466;2022-09-28T11:16:39;14.80;99.90
21149;DHT22;10732;51.472;6.466;2022-09-28T11:19:27;16.30;99.90
21149;DHT22;10732;51.472;6.466;2022-09-28T11:21:54;16.50;99.90
21149;DHT22;10732;51.472;6.466;2022-09-28T11:24:21;17.10;99.90
21149;DHT22;10732;51.472;6.466;2022-09-28T11:26:54;17.50;99.90
21149;DHT22;10732;51.472;6.466;2022-09-28T11:29:35;17.20;99.90
21149;DHT22;10732;51.472;6.466;2022-09-28T11:32:02;16.10;99.90
21149;DHT22;10732;51.472;6.466;2022-09-28T11:34:37;15.60;99.90
21149;DHT22;10732;51.472;6.466;2022-09-28T11:42:52;17.60;99.90
21149;DHT22;10732;51.472;6.466;2022-09-28T11:48:11;17.70;99.90
21149;DHT22;10732;51.472;6.466;2022-09-28T11:50:57;17.20;99.90
21149;DHT22;10732;51.472;6.466;2022-09-28T11:53:36;17.20;99.90
21149;DHT22;10732;51.472;6.466;2022-09-28T11:58:39;17.80;99.90
21149;DHT22;10732;51.472;6.466;2022-09-28T12:03:57;17.50;99.90
21149;DHT22;10732;51.472;6.466;2022-09-28T12:06:32;17.30;99.90
21149;DHT22;10732;51.472;6.466;2022-09-28T12:09:19;17.40;99.90
21149;DHT22;10732;51.472;6.466;2022-09-28T12:11:49;17.20;99.90
21149;DHT22;10732;51.472;6.466;2022-09-28T12:14:22;17.10;99.90
21149;DHT22;10732;51.472;6.466;2022-09-28T12:16:55;16.60;99.90
21149;DHT22;10732;51.472;6.466;2022-09-28T12:19:31;16.60;99.90
21149;DHT22;10732;51.472;6.466;2022-09-28T12:22:22;16.40;99.90
21149;DHT22;10732;51.472;6.466;2022-09-28T12:24:51;16.30;99.90
21149;DHT22;10732;51.472;6.466;2022-09-28T12:27:47;16.20;99.90
21149;DHT22;10732;51.472;6.466;2022-09-28T12:30:22;16.30;99.90
21149;DHT22;10732;51.472;6.466;2022-09-28T12:33:14;16.40;99.90
21149;DHT22;10732;51.472;6.466;2022-09-28T12:35:53;16.40;99.90
21149;DHT22;10732;51.472;6.466;2022-09-28T12:41:32;16.10;99.90
21149;DHT22;10732;51.472;6.466;2022-09-28T12:47:04;15.60;99.90
21149;DHT22;10732;51.472;6.466;2022-09-28T12:55:23;14.90;99.90
21149;DHT22;10732;51.472;6.466;2022-09-28T13:03:58;14.60;99.90
21149;DHT22;10732;51.472;6.466;2022-09-28T13:07:19;14.50;99.90
21149;DHT22;10732;51.472;6.466;2022-09-28T13:09:25;14.50;99.90
21149;DHT22;10732;51.472;6.466;2022-09-28T13:12:13;14.60;99.90
21149;DHT22;10732;51.472;6.466;2022-09-28T13:21:01;14.80;99.90
21149;DHT22;10732;51.472;6.466;2022-09-28T13:23:36;14.60;99.90
21149;DHT22;10732;51.472;6.466;2022-09-28T13:26:25;14.50;99.90
21149;DHT22;10732;51.472;6.466;2022-09-28T13:28:54;14.40;99.90
21149;DHT22;10732;51.472;6.466;2022-09-28T13:31:24;14.30;99.90
21149;DHT22;10732;51.472;6.466;2022-09-28T13:34:01;14.20;99.90
21149;DHT22;10732;51.472;6.466;2022-09-28T13:38:57;13.90;99.90
21149;DHT22;10732;51.472;6.466;2022-09-28T13:41:35;13.80;99.90
21149;DHT22;10732;51.472;6.466;2022-09-28T13:52:03;12.90;99.90
21149;DHT22;10732;51.472;6.466;2022-09-28T13:55:22;12.70;99.90
21149;DHT22;10732;51.472;6.466;2022-09-28T13:57:47;12.40;99.90
21149;DHT22;10732;51.472;6.466;2022-09-28T14:00:31;12.20;99.90
21149;DHT22;10732;51.472;6.466;2022-09-28T14:03:11;12.00;99.90
21149;DHT22;10732;51.472;6.466;2022-09-28T14:08:33;11.70;99.90
21149;DHT22;10732;51.472;6.466;2022-09-28T14:19:59;11.50;99.90
21149;DHT22;10732;51.472;6.466;2022-09-28T14:23:33;11.40;99.90
21149;DHT22;10732;51.472;6.466;2022-09-28T14:26:04;11.20;99.90
21149;DHT22;10732;51.472;6.466;2022-09-28T14:31:27;10.90;74.20
21149;DHT22;10732;51.472;6.466;2022-09-28T14:33:58;11.20;92.60
21149;DHT22;10732;51.472;6.466;2022-09-28T14:36:39;11.20;99.90
21149;DHT22;10732;51.472;6.466;2022-09-28T14:39:27;10.90;99.90
21149;DHT22;10732;51.472;6.466;2022-09-28T14:42:16;11.30;99.90
21149;DHT22;10732;51.472;6.466;2022-09-28T14:50:22;12.40;56.90
21149;DHT22;10732;51.472;6.466;2022-09-28T14:52:53;12.70;90.60
21149;DHT22;10732;51.472;6.466;2022-09-28T14:55:25;13.10;1.00
21149;DHT22;10732;51.472;6.466;2022-09-28T14:57:54;13.00;1.00
21149;DHT22;10732;51.472;6.466;2022-09-28T15:00:24;13.00;39.10
21149;DHT22;10732;51.472;6.466;2022-09-28T15:02:53;12.90;99.90
21149;DHT22;10732;51.472;6.466;2022-09-28T15:05:30;12.60;99.90
21149;DHT22;10732;51.472;6.466;2022-09-28T15:07:56;12.00;99.90
21149;DHT22;10732;51.472;6.466;2022-09-28T15:10:32;11.70;99.90
21149;DHT22;10732;51.472;6.466;2022-09-28T15:12:59;11.80;99.90
21149;DHT22;10732;51.472;6.466;2022-09-28T15:15:35;11.80;99.90
21149;DHT22;10732;51.472;6.466;2022-09-28T15:20:48;11.50;99.90
21149;DHT22;10732;51.472;6.466;2022-09-28T15:25:55;10.90;99.90
21149;DHT22;10732;51.472;6.466;2022-09-28T15:28:22;10.60;99.90
21149;DHT22;10732;51.472;6.466;2022-09-28T15:30:49;10.50;99.90
21149;DHT22;10732;51.472;6.466;2022-09-28T15:33:26;10.30;99.90
21149;DHT22;10732;51.472;6.466;2022-09-28T15:36:21;9.90;99.90
21149;DHT22;10732;51.472;6.466;2022-09-28T15:39:00;9.60;99.90
21149;DHT22;10732;51.472;6.466;2022-09-28T15:41:27;9.50;99.90
21149;DHT22;10732;51.472;6.466;2022-09-28T15:46:37;9.60;99.90
21149;DHT22;10732;51.472;6.466;2022-09-28T15:49:04;9.90;99.90
21149;DHT22;10732;51.472;6.466;2022-09-28T15:51:31;10.00;99.90
21149;DHT22;10732;51.472;6.466;2022-09-28T15:54:16;10.00;99.90
21149;DHT22;10732;51.472;6.466;2022-09-28T15:56:51;9.90;99.90
21149;DHT22;10732;51.472;6.466;2022-09-28T15:59:25;9.90;99.90
21149;DHT22;10732;51.472;6.466;2022-09-28T16:02:17;10.00;99.90
21149;DHT22;10732;51.472;6.466;2022-09-28T16:04:58;10.30;99.90
21149;DHT22;10732;51.472;6.466;2022-09-28T16:07:37;10.30;99.90
21149;DHT22;10732;51.472;6.466;2022-09-28T16:12:55;10.60;99.90
21149;DHT22;10732;51.472;6.466;2022-09-28T16:15:29;10.70;99.90
21149;DHT22;10732;51.472;6.466;2022-09-28T16:17:57;10.60;99.90
21149;DHT22;10732;51.472;6.466;2022-09-28T16:20:33;10.70;99.90
21149;DHT22;10732;51.472;6.466;2022-09-28T16:23:07;10.80;99.90
21149;DHT22;10732;51.472;6.466;2022-09-28T16:25:35;10.90;99.90
21149;DHT22;10732;51.472;6.466;2022-09-28T16:28:04;10.90;99.90
21149;DHT22;10732;51.472;6.466;2022-09-28T16:30:32;11.00;99.90
21149;DHT22;10732;51.472;6.466;2022-09-28T16:33:03;10.80;99.90
21149;DHT22;10732;51.472;6.466;2022-09-28T16:38:15;10.40;99.90
21149;DHT22;10732;51.472;6.466;2022-09-28T16:40:43;10.50;99.90
21149;DHT22;10732;51.472;6.466;2022-09-28T16:43:28;10.60;99.90
21149;DHT22;10732;51.472;6.466;2022-09-28T16:45:57;10.70;99.90
21149;DHT22;10732;51.472;6.466;2022-09-28T16:48:28;10.70;99.90
21149;DHT22;10732;51.472;6.466;2022-09-28T16:50:55;10.70;99.90
21149;DHT22;10732;51.472;6.466;2022-09-28T16:53:20;10.60;99.90
21149;DHT22;10732;51.472;6.466;2022-09-28T16:56:05;10.70;99.90
21149;DHT22;10732;51.472;6.466;2022-09-28T16:58:31;10.50;99.90
21149;DHT22;10732;51.472;6.466;2022-09-28T17:00:58;10.50;99.90
21149;DHT22;10732;51.472;6.466;2022-09-28T17:03:24;10.50;99.90
21149;DHT22;10732;51.472;6.466;2022-09-28T17:05:50;10.40;99.90
21149;DHT22;10732;51.472;6.466;2022-09-28T17:08:18;10.40;99.90
21149;DHT22;10732;51.472;6.466;2022-09-28T17:10:55;10.10;99.90
21149;DHT22;10732;51.472;6.466;2022-09-28T17:13:23;10.20;99.90
21149;DHT22;10732;51.472;6.466;2022-09-28T17:15:53;10.40;99.90
21149;DHT22;10732;51.472;6.466;2022-09-28T17:18:18;10.40;99.90
21149;DHT22;10732;51.472;6.466;2022-09-28T17:20:47;10.30;99.90
21149;DHT22;10732;51.472;6.466;2022-09-28T17:23:14;10.30;99.90
21149;DHT22;10732;51.472;6.466;2022-09-28T17:25:40;10.20;99.90
21149;DHT22;10732;51.472;6.466;2022-09-28T17:28:16;10.20;99.90
21149;DHT22;10732;51.472;6.466;2022-09-28T17:30:43;10.20;99.90
21149;DHT22;10732;51.472;6.466;2022-09-28T17:33:09;10.10;99.90
21149;DHT22;10732;51.472;6.466;2022-09-28T17:35:35;10.10;99.90
21149;DHT22;10732;51.472;6.466;2022-09-28T17:38:01;10.00;99.90
21149;DHT22;10732;51.472;6.466;2022-09-28T17:40:28;9.60;99.90
21149;DHT22;10732;51.472;6.466;2022-09-28T17:42:54;9.50;99.90
21149;DHT22;10732;51.472;6.466;2022-09-28T17:45:21;9.60;99.90
21149;DHT22;10732;51.472;6.466;2022-09-28T17:47:47;9.60;99.90
21149;DHT22;10732;51.472;6.466;2022-09-28T17:50:20;9.50;99.90
21149;DHT22;10732;51.472;6.466;2022-09-28T17:52:50;9.40;99.90
21149;DHT22;10732;51.472;6.466;2022-09-28T17:55:18;9.30;99.90
21149;DHT22;10732;51.472;6.466;2022-09-28T17:57:44;9.20;99.90
21149;DHT22;10732;51.472;6.466;2022-09-28T18:00:10;9.30;99.90
21149;DHT22;10732;51.472;6.466;2022-09-28T18:02:37;9.20;99.90
21149;DHT22;10732;51.472;6.466;2022-09-28T18:05:06;9.10;99.90
21149;DHT22;10732;51.472;6.466;2022-09-28T18:07:32;9.00;99.90
21149;DHT22;10732;51.472;6.466;2022-09-28T18:09:59;9.00;99.90
21149;DHT22;10732;51.472;6.466;2022-09-28T18:12:25;9.00;99.90
21149;DHT22;10732;51.472;6.466;2022-09-28T18:14:51;9.00;99.90
21149;DHT22;10732;51.472;6.466;2022-09-28T18:17:16;9.00;99.90
21149;DHT22;10732;51.472;6.466;2022-09-28T18:19:42;9.00;99.90
21149;DHT22;10732;51.472;6.466;2022-09-28T18:22:08;8.90;99.90
21149;DHT22;10732;51.472;6.466;2022-09-28T18:24:33;8.90;99.90